createdAt,value
2023-05-22T00:00:23.028Z,99.90
2023-05-22T00:02:50.832Z,99.90
2023-05-22T00:05:19.638Z,99.90
2023-05-22T00:07:48.434Z,99.90
2023-05-22T00:10:16.016Z,99.90
2023-05-22T00:12:43.618Z,99.90
2023-05-22T00:15:11.641Z,99.90
2023-05-22T00:17:39.234Z,99.90
2023-05-22T00:20:10.132Z,99.90
2023-05-22T00:22:37.768Z,99.90
2023-05-22T00:25:05.345Z,99.90
2023-05-22T00:27:33.156Z,99.90
2023-05-22T00:30:00.901Z,99.90
2023-05-22T00:32:29.327Z,99.90
2023-05-22T00:34:56.856Z,99.90
2023-05-22T00:37:26.244Z,99.90
2023-05-22T00:39:53.988Z,99.90
2023-05-22T00:42:22.585Z,99.90
2023-05-22T00:44:50.244Z,99.90
2023-05-22T00:47:17.863Z,99.90
2023-05-22T00:49:46.843Z,99.90
2023-05-22T00:52:14.596Z,99.90
2023-05-22T00:54:42.359Z,99.90
2023-05-22T00:57:09.955Z,99.90
2023-05-22T00:59:39.635Z,99.90
2023-05-22T01:02:08.049Z,99.90
2023-05-22T01:04:35.536Z,99.90
2023-05-22T01:07:04.913Z,99.90
2023-05-22T01:09:32.507Z,99.90
2023-05-22T01:12:07.031Z,99.90
2023-05-22T01:14:41.173Z,99.90
2023-05-22T01:17:08.890Z,99.90
2023-05-22T01:19:54.890Z,99.90
2023-05-22T01:22:37.126Z,99.90
2023-05-22T01:25:11.267Z,99.90
2023-05-22T01:27:50.848Z,99.90
2023-05-22T01:30:21.221Z,99.90
2023-05-22T01:32:48.846Z,99.90
2023-05-22T01:35:16.371Z,99.90
2023-05-22T01:37:44.017Z,99.90
2023-05-22T01:40:11.699Z,99.90
2023-05-22T01:42:39.291Z,99.90
2023-05-22T01:45:07.286Z,99.90
2023-05-22T01:47:35.106Z,99.90
2023-05-22T01:50:02.695Z,99.90
2023-05-22T01:52:34.237Z,99.90
2023-05-22T01:55:02.596Z,99.90
2023-05-22T01:57:35.847Z,99.90
2023-05-22T02:00:15.373Z,99.90
2023-05-22T02:02:43.055Z,99.90
2023-05-22T02:05:10.619Z,99.90
2023-05-22T02:07:42.870Z,99.90
2023-05-22T02:10:10.530Z,99.90
2023-05-22T02:12:38.148Z,99.90
2023-05-22T02:15:05.982Z,99.90
2023-05-22T02:17:33.567Z,99.90
2023-05-22T02:20:01.167Z,99.90
2023-05-22T02:22:28.784Z,99.90
2023-05-22T02:24:56.358Z,99.90
2023-05-22T02:27:24.727Z,99.90
2023-05-22T02:29:52.347Z,99.90
2023-05-22T02:32:19.936Z,99.90
2023-05-22T02:34:47.916Z,99.90
2023-05-22T02:37:15.628Z,99.90
2023-05-22T02:39:43.225Z,99.90
2023-05-22T02:42:10.817Z,99.90
2023-05-22T02:44:39.543Z,99.90
2023-05-22T02:47:07.119Z,99.90
2023-05-22T02:49:34.836Z,99.90
2023-05-22T02:52:02.354Z,99.90
2023-05-22T02:54:29.945Z,99.90
2023-05-22T02:56:57.531Z,99.90
2023-05-22T02:59:25.310Z,99.90
2023-05-22T03:01:52.922Z,99.90
2023-05-22T03:04:20.518Z,99.90
2023-05-22T03:06:48.129Z,99.90
2023-05-22T03:09:15.723Z,99.90
2023-05-22T03:11:43.317Z,99.90
2023-05-22T03:14:11.432Z,99.90
2023-05-22T03:16:41.592Z,99.90
2023-05-22T03:19:12.062Z,99.90
2023-05-22T03:21:40.055Z,99.90
2023-05-22T03:24:08.457Z,99.90
2023-05-22T03:26:36.051Z,99.90
2023-05-22T03:29:03.846Z,99.90
2023-05-22T03:31:35.679Z,99.90
2023-05-22T03:34:03.928Z,99.90
2023-05-22T03:36:32.504Z,99.90
2023-05-22T03:38:59.269Z,99.90
2023-05-22T03:41:26.863Z,99.90
2023-05-22T03:43:55.262Z,99.90
2023-05-22T03:46:23.647Z,99.90
2023-05-22T03:48:51.242Z,99.90
2023-05-22T03:51:20.393Z,99.90
2023-05-22T03:53:46.460Z,99.90
2023-05-22T03:56:14.091Z,99.90
2023-05-22T03:58:41.697Z,99.90
2023-05-22T04:01:09.272Z,99.90
2023-05-22T04:03:36.984Z,99.90
2023-05-22T04:06:05.417Z,99.90
2023-05-22T04:08:33.467Z,99.90
2023-05-22T04:11:02.476Z,99.90
2023-05-22T04:13:30.558Z,99.90
2023-05-22T04:15:58.956Z,99.90
2023-05-22T04:18:26.489Z,99.90
2023-05-22T04:20:55.577Z,99.90
2023-05-22T04:23:23.154Z,99.90
2023-05-22T04:25:51.513Z,99.90
2023-05-22T04:28:19.153Z,99.90
2023-05-22T04:30:46.775Z,99.90
2023-05-22T04:33:14.448Z,99.90
2023-05-22T04:35:41.999Z,99.90
2023-05-22T04:38:10.376Z,99.90
2023-05-22T04:40:38.355Z,99.90
2023-05-22T04:43:05.635Z,99.90
2023-05-22T04:45:33.219Z,99.90
2023-05-22T04:48:01.571Z,99.90
2023-05-22T04:50:29.541Z,99.90
2023-05-22T04:52:59.184Z,99.90
2023-05-22T04:55:28.154Z,99.90
2023-05-22T04:57:56.491Z,99.90
2023-05-22T05:00:24.011Z,99.90
2023-05-22T05:02:51.643Z,99.90
2023-05-22T05:05:19.241Z,99.90
2023-05-22T05:07:50.084Z,99.90
2023-05-22T05:10:17.679Z,99.90
2023-05-22T05:12:45.342Z,99.90
2023-05-22T05:15:12.941Z,99.90
2023-05-22T05:17:40.572Z,99.90
2023-05-22T05:20:09.055Z,99.90
2023-05-22T05:22:36.622Z,99.90
2023-05-22T05:25:04.261Z,99.90
2023-05-22T05:27:31.892Z,99.90
2023-05-22T05:29:59.837Z,99.90
2023-05-22T05:32:27.469Z,99.90
2023-05-22T05:34:55.866Z,99.90
2023-05-22T05:37:23.452Z,99.90
2023-05-22T05:39:51.811Z,99.90
2023-05-22T05:42:19.474Z,99.90
2023-05-22T05:44:47.067Z,99.90
2023-05-22T05:47:14.658Z,99.90
2023-05-22T05:49:42.285Z,99.90
2023-05-22T05:52:09.885Z,99.90
2023-05-22T05:54:37.470Z,99.90
2023-05-22T05:57:05.101Z,99.90
2023-05-22T05:59:32.685Z,99.90
2023-05-22T06:02:00.261Z,99.90
2023-05-22T06:04:28.683Z,99.90
2023-05-22T06:06:56.298Z,99.90
2023-05-22T06:09:23.872Z,99.90
2023-05-22T06:11:52.266Z,99.90
2023-05-22T06:14:20.632Z,99.90
2023-05-22T06:16:48.272Z,99.90
2023-05-22T06:19:15.894Z,99.90
2023-05-22T06:21:44.219Z,99.90
2023-05-22T06:24:11.779Z,99.90
2023-05-22T06:26:40.173Z,99.90
2023-05-22T06:29:08.533Z,99.90
2023-05-22T06:31:36.110Z,99.90
2023-05-22T06:34:04.605Z,99.90
2023-05-22T06:36:32.112Z,99.90
2023-05-22T06:38:59.700Z,99.90
2023-05-22T06:41:28.119Z,99.90
2023-05-22T06:43:55.885Z,99.90
2023-05-22T06:46:25.683Z,99.90
2023-05-22T06:48:51.080Z,99.90
2023-05-22T06:51:19.428Z,99.90
2023-05-22T06:53:47.014Z,99.90
2023-05-22T06:56:14.645Z,99.90
2023-05-22T06:58:42.255Z,99.90
2023-05-22T07:01:09.890Z,99.90
2023-05-22T07:03:37.525Z,99.90
2023-05-22T07:06:05.122Z,99.90
2023-05-22T07:08:33.449Z,99.90
2023-05-22T07:11:01.108Z,99.90
2023-05-22T07:13:28.679Z,99.90
2023-05-22T07:15:56.258Z,99.90
2023-05-22T07:18:23.888Z,99.90
2023-05-22T07:20:51.498Z,99.90
2023-05-22T07:23:19.052Z,99.90
2023-05-22T07:25:47.441Z,99.90
2023-05-22T07:28:15.034Z,99.90
2023-05-22T07:30:42.631Z,99.90
2023-05-22T07:33:10.357Z,99.90
2023-05-22T07:35:37.838Z,99.90
2023-05-22T07:38:05.418Z,99.90
2023-05-22T07:40:33.807Z,99.90
2023-05-22T07:43:02.151Z,99.90
2023-05-22T07:45:29.759Z,99.90
2023-05-22T07:47:58.180Z,99.90
2023-05-22T07:50:25.763Z,99.90
2023-05-22T07:52:53.331Z,99.90
2023-05-22T07:55:20.969Z,99.90
2023-05-22T07:57:48.542Z,99.90
2023-05-22T08:00:16.223Z,99.90
2023-05-22T08:02:45.046Z,99.90
2023-05-22T08:05:13.053Z,99.90
2023-05-22T08:07:41.326Z,99.90
2023-05-22T08:10:09.048Z,99.90
2023-05-22T08:12:36.626Z,99.90
2023-05-22T08:15:04.268Z,99.90
2023-05-22T08:17:32.026Z,99.90
2023-05-22T08:20:00.497Z,99.90
2023-05-22T08:22:27.829Z,99.90
2023-05-22T08:24:56.229Z,99.90
2023-05-22T08:27:23.803Z,99.90
2023-05-22T08:29:51.378Z,99.90
2023-05-22T08:32:19.036Z,99.90
2023-05-22T08:34:46.609Z,99.90
2023-05-22T08:37:17.189Z,99.90
2023-05-22T08:39:44.832Z,99.90
2023-05-22T08:42:12.408Z,99.90
2023-05-22T08:44:40.004Z,99.90
2023-05-22T08:47:07.709Z,99.90
2023-05-22T08:49:36.017Z,99.90
2023-05-22T08:52:06.718Z,99.90
2023-05-22T08:54:34.346Z,99.90
2023-05-22T08:57:01.946Z,99.90
2023-05-22T08:59:29.533Z,99.90
2023-05-22T09:01:57.156Z,99.90
2023-05-22T09:04:24.730Z,99.90
2023-05-22T09:06:53.124Z,99.90
2023-05-22T09:09:20.745Z,99.90
2023-05-22T09:11:48.340Z,99.90
2023-05-22T09:14:16.716Z,99.90
2023-05-22T09:16:47.241Z,99.90
2023-05-22T09:19:17.448Z,99.90
2023-05-22T09:21:44.981Z,99.90
2023-05-22T09:24:12.639Z,99.90
2023-05-22T09:26:40.231Z,99.90
2023-05-22T09:29:07.833Z,99.90
2023-05-22T09:31:42.128Z,99.90
2023-05-22T09:34:09.631Z,99.90
2023-05-22T09:36:37.225Z,99.90
2023-05-22T09:39:04.848Z,99.90
2023-05-22T09:41:34.829Z,99.90
2023-05-22T09:44:03.158Z,99.90
2023-05-22T09:46:30.855Z,99.90
2023-05-22T09:48:58.396Z,99.90
2023-05-22T09:51:25.996Z,99.90
2023-05-22T09:53:53.614Z,99.90
2023-05-22T09:56:30.845Z,99.90
2023-05-22T09:58:48.824Z,99.90
2023-05-22T10:01:16.461Z,99.90
2023-05-22T10:03:44.073Z,99.90
2023-05-22T10:06:11.617Z,99.90
2023-05-22T10:08:44.940Z,99.90
2023-05-22T10:11:13.299Z,99.90
2023-05-22T10:13:40.880Z,99.90
2023-05-22T10:16:09.337Z,99.90
2023-05-22T10:18:36.883Z,99.90
2023-05-22T10:21:04.450Z,99.90
2023-05-22T10:23:32.141Z,99.90
2023-05-22T10:25:59.669Z,99.90
2023-05-22T10:28:27.280Z,99.90
2023-05-22T10:31:01.260Z,99.90
2023-05-22T10:33:29.631Z,99.90
2023-05-22T10:35:59.949Z,99.90
2023-05-22T10:39:04.679Z,99.90
2023-05-22T10:41:32.297Z,99.90
2023-05-22T10:43:59.861Z,99.90
2023-05-22T10:46:27.549Z,99.90
2023-05-22T10:48:55.074Z,99.90
2023-05-22T10:51:22.664Z,99.90
2023-05-22T10:53:55.665Z,99.90
2023-05-22T10:56:25.335Z,99.90
2023-05-22T10:58:57.644Z,99.90
2023-05-22T11:01:28.070Z,99.90
2023-05-22T11:04:05.275Z,99.80
2023-05-22T11:06:35.512Z,99.80
2023-05-22T11:09:24.595Z,99.20
2023-05-22T11:12:19.785Z,99.50
2023-05-22T11:15:08.586Z,98.80
2023-05-22T11:17:42.252Z,98.40
2023-05-22T11:20:21.543Z,98.10
2023-05-22T11:23:01.123Z,97.70
2023-05-22T11:25:28.701Z,97.70
2023-05-22T11:27:56.437Z,97.50
2023-05-22T11:30:26.600Z,97.50
2023-05-22T11:32:54.210Z,97.60
2023-05-22T11:35:21.776Z,97.40
2023-05-22T11:37:50.186Z,97.00
2023-05-22T11:40:17.956Z,96.70
2023-05-22T11:42:46.246Z,95.90
2023-05-22T11:45:13.864Z,95.80
2023-05-22T11:47:41.475Z,95.70
2023-05-22T11:50:12.127Z,95.70
2023-05-22T11:52:40.518Z,95.40
2023-05-22T11:55:09.086Z,95.50
2023-05-22T11:57:36.652Z,95.40
2023-05-22T12:00:05.253Z,95.40
2023-05-22T12:02:33.675Z,95.70
2023-05-22T12:05:01.175Z,95.40
2023-05-22T12:07:29.594Z,95.20
2023-05-22T12:09:57.912Z,94.50
2023-05-22T12:12:25.516Z,94.50
2023-05-22T12:14:53.184Z,94.10
2023-05-22T12:17:21.499Z,93.60
2023-05-22T12:19:49.098Z,93.60
2023-05-22T12:22:17.473Z,92.90
2023-05-22T12:24:48.571Z,92.70
2023-05-22T12:27:16.263Z,92.60
2023-05-22T12:29:43.939Z,92.20
2023-05-22T12:32:11.667Z,91.30
2023-05-22T12:34:42.780Z,90.40
2023-05-22T12:37:21.942Z,90.40
2023-05-22T12:39:58.204Z,90.30
2023-05-22T12:42:25.827Z,90.00
2023-05-22T12:44:53.410Z,85.80
2023-05-22T12:47:20.984Z,85.90
2023-05-22T12:49:48.617Z,86.10
2023-05-22T12:52:16.191Z,86.80
2023-05-22T12:54:43.793Z,86.20
2023-05-22T12:57:11.408Z,86.10
2023-05-22T12:59:38.991Z,86.00
2023-05-22T13:02:06.694Z,85.10
2023-05-22T13:04:34.262Z,85.00
2023-05-22T13:07:01.804Z,84.90
2023-05-22T13:09:29.409Z,84.90
2023-05-22T13:11:57.048Z,84.10
2023-05-22T13:14:24.655Z,84.00
2023-05-22T13:16:52.210Z,84.50
2023-05-22T13:19:19.907Z,84.30
2023-05-22T13:21:47.461Z,84.30
2023-05-22T13:24:15.830Z,83.90
2023-05-22T13:26:43.465Z,83.80
2023-05-22T13:29:11.079Z,83.10
2023-05-22T13:31:39.401Z,85.50
2023-05-22T13:34:07.102Z,85.40
2023-05-22T13:36:34.642Z,85.80
2023-05-22T13:39:02.978Z,83.60
2023-05-22T13:41:30.636Z,84.00
2023-05-22T13:43:58.222Z,84.30
2023-05-22T13:46:25.810Z,84.00
2023-05-22T13:48:53.436Z,83.70
2023-05-22T13:51:21.025Z,83.70
2023-05-22T13:53:48.612Z,83.90
2023-05-22T13:56:16.265Z,83.50
2023-05-22T13:58:44.599Z,84.10
2023-05-22T14:01:12.232Z,83.80
2023-05-22T14:03:40.956Z,82.00
2023-05-22T14:06:08.422Z,81.90
2023-05-22T14:08:36.003Z,81.50
2023-05-22T14:11:04.403Z,80.30
2023-05-22T14:13:32.017Z,80.20
2023-05-22T14:15:59.571Z,80.20
2023-05-22T14:18:27.207Z,80.60
2023-05-22T14:20:54.797Z,80.70
2023-05-22T14:23:22.379Z,81.10
2023-05-22T14:25:50.778Z,80.20
2023-05-22T14:28:18.368Z,80.10
2023-05-22T14:30:46.009Z,79.70
2023-05-22T14:33:13.612Z,79.90
2023-05-22T14:35:41.511Z,80.60
2023-05-22T14:38:09.558Z,79.70
2023-05-22T14:40:37.986Z,79.80
2023-05-22T14:43:05.570Z,79.80
2023-05-22T14:45:33.216Z,80.30
2023-05-22T14:48:00.869Z,80.40
2023-05-22T14:50:28.390Z,80.80
2023-05-22T14:52:55.996Z,81.60
2023-05-22T14:55:23.789Z,81.10
2023-05-22T14:57:51.388Z,80.90
2023-05-22T15:00:19.870Z,79.40
2023-05-22T15:02:48.269Z,78.90
2023-05-22T15:05:15.934Z,78.80
2023-05-22T15:07:46.119Z,78.90
2023-05-22T15:10:11.101Z,79.60
2023-05-22T15:12:38.687Z,79.90
2023-05-22T15:15:07.146Z,80.10
2023-05-22T15:17:34.831Z,80.00
2023-05-22T15:20:02.395Z,80.30
2023-05-22T15:22:30.725Z,79.10
2023-05-22T15:25:04.058Z,79.10
2023-05-22T15:27:32.406Z,78.40
2023-05-22T15:29:59.990Z,78.30
2023-05-22T15:32:27.697Z,78.40
2023-05-22T15:34:55.207Z,78.40
2023-05-22T15:37:23.572Z,77.20
2023-05-22T15:39:51.974Z,77.10
2023-05-22T15:42:19.561Z,77.00
2023-05-22T15:44:47.158Z,77.00
2023-05-22T15:47:14.773Z,76.60
2023-05-22T15:49:42.357Z,76.80
2023-05-22T15:52:09.952Z,76.50
2023-05-22T15:54:37.564Z,76.00
2023-05-22T15:57:05.216Z,76.10
2023-05-22T15:59:32.793Z,75.80
2023-05-22T16:02:00.439Z,75.50
2023-05-22T16:04:28.114Z,75.90
2023-05-22T16:06:55.674Z,75.70
2023-05-22T16:09:23.286Z,75.50
2023-05-22T16:11:51.644Z,74.90
2023-05-22T16:14:19.232Z,74.80
2023-05-22T16:16:46.870Z,75.10
2023-05-22T16:19:14.525Z,74.60
2023-05-22T16:21:42.066Z,73.70
2023-05-22T16:24:09.703Z,72.90
2023-05-22T16:26:40.155Z,72.50
2023-05-22T16:29:07.703Z,72.80
2023-05-22T16:31:38.006Z,73.10
2023-05-22T16:34:05.562Z,73.50
2023-05-22T16:36:33.888Z,73.60
2023-05-22T16:39:01.545Z,73.80
2023-05-22T16:41:29.124Z,73.90
2023-05-22T16:43:56.736Z,73.40
2023-05-22T16:46:24.465Z,72.80
2023-05-22T16:48:51.963Z,72.70
2023-05-22T16:51:19.550Z,73.00
2023-05-22T16:53:47.190Z,72.80
2023-05-22T16:56:14.786Z,72.90
2023-05-22T16:58:42.357Z,72.30
2023-05-22T17:01:10.844Z,72.30
2023-05-22T17:03:38.507Z,72.20
2023-05-22T17:06:06.813Z,72.50
2023-05-22T17:08:34.438Z,73.40
2023-05-22T17:11:02.791Z,74.60
2023-05-22T17:13:30.361Z,74.60
2023-05-22T17:15:58.024Z,75.50
2023-05-22T17:18:25.584Z,76.30
2023-05-22T17:20:54.002Z,77.70
2023-05-22T17:23:21.563Z,77.60
2023-05-22T17:25:49.133Z,78.20
2023-05-22T17:28:16.708Z,78.60
2023-05-22T17:30:44.340Z,78.90
2023-05-22T17:33:11.952Z,79.40
2023-05-22T17:35:39.511Z,79.70
2023-05-22T17:38:07.156Z,79.80
2023-05-22T17:40:44.004Z,79.60
2023-05-22T17:43:02.308Z,79.60
2023-05-22T17:45:30.691Z,81.10
2023-05-22T17:47:59.103Z,81.20
2023-05-22T17:50:27.416Z,82.00
2023-05-22T17:52:55.054Z,82.00
2023-05-22T17:55:22.652Z,82.70
2023-05-22T17:57:50.215Z,83.00
2023-05-22T18:00:17.842Z,83.10
2023-05-22T18:02:45.537Z,83.80
2023-05-22T18:05:13.788Z,86.00
2023-05-22T18:07:41.541Z,85.30
2023-05-22T18:10:09.112Z,85.30
2023-05-22T18:12:38.269Z,85.70
2023-05-22T18:15:04.294Z,86.20
2023-05-22T18:17:31.885Z,86.70
2023-05-22T18:19:59.460Z,87.40
2023-05-22T18:22:27.094Z,87.40
2023-05-22T18:24:54.684Z,87.90
2023-05-22T18:27:22.263Z,88.10
2023-05-22T18:29:50.684Z,88.40
2023-05-22T18:32:18.277Z,88.30
2023-05-22T18:34:45.855Z,88.70
2023-05-22T18:37:13.518Z,89.10
2023-05-22T18:39:41.095Z,89.90
2023-05-22T18:42:08.677Z,89.50
2023-05-22T18:44:36.306Z,90.00
2023-05-22T18:47:04.730Z,90.40
2023-05-22T18:49:32.242Z,90.40
2023-05-22T18:52:00.644Z,90.90
2023-05-22T18:54:28.243Z,90.90
2023-05-22T18:56:55.791Z,90.80
2023-05-22T18:59:23.428Z,90.90
2023-05-22T19:01:51.021Z,91.20
2023-05-22T19:04:18.616Z,91.40
2023-05-22T19:06:46.356Z,91.70
2023-05-22T19:09:13.950Z,91.90
2023-05-22T19:11:42.302Z,92.50
2023-05-22T19:14:09.954Z,92.50
2023-05-22T19:16:37.705Z,92.40
2023-05-22T19:19:05.905Z,93.20
2023-05-22T19:21:33.515Z,93.30
2023-05-22T19:24:01.117Z,93.30
2023-05-22T19:26:28.702Z,93.80
2023-05-22T19:28:57.124Z,94.30
2023-05-22T19:31:24.757Z,94.30
2023-05-22T19:33:52.302Z,94.30
2023-05-22T19:36:19.922Z,94.60
2023-05-22T19:38:47.503Z,95.00
2023-05-22T19:41:15.101Z,95.40
2023-05-22T19:43:42.721Z,95.70
2023-05-22T19:46:10.361Z,96.10
2023-05-22T19:48:38.672Z,96.70
2023-05-22T19:51:06.355Z,97.00
2023-05-22T19:53:34.826Z,97.00
2023-05-22T19:56:02.292Z,97.00
2023-05-22T19:58:30.681Z,97.60
2023-05-22T20:00:58.256Z,97.60
2023-05-22T20:03:25.922Z,97.50
2023-05-22T20:05:53.486Z,97.80
2023-05-22T20:08:21.081Z,98.00
2023-05-22T20:10:48.654Z,98.30
2023-05-22T20:13:16.302Z,98.50
2023-05-22T20:15:43.883Z,98.80
2023-05-22T20:18:12.248Z,99.70
2023-05-22T20:20:39.896Z,99.30
2023-05-22T20:23:07.492Z,99.50
2023-05-22T20:25:35.857Z,99.90
2023-05-22T20:28:03.784Z,99.90
2023-05-22T20:30:31.278Z,99.90
2023-05-22T20:32:58.966Z,99.90
2023-05-22T20:35:26.488Z,99.90
2023-05-22T20:37:54.087Z,99.90
2023-05-22T20:40:21.695Z,99.90
2023-05-22T20:42:49.328Z,99.90
2023-05-22T20:45:16.905Z,99.90
2023-05-22T20:47:44.526Z,99.90
2023-05-22T20:50:12.149Z,99.90
2023-05-22T20:52:39.724Z,99.90
2023-05-22T20:55:07.288Z,99.90
2023-05-22T20:57:34.921Z,99.90
2023-05-22T21:00:02.491Z,99.90
2023-05-22T21:02:30.907Z,99.90
2023-05-22T21:04:58.636Z,99.90
2023-05-22T21:07:26.219Z,99.90
2023-05-22T21:09:54.560Z,99.90
2023-05-22T21:12:22.213Z,99.90
2023-05-22T21:14:49.817Z,99.90
2023-05-22T21:17:18.230Z,99.90
2023-05-22T21:19:46.579Z,99.90
2023-05-22T21:22:14.164Z,99.90
2023-05-22T21:24:41.749Z,99.90
2023-05-22T21:27:09.388Z,99.90
2023-05-22T21:29:36.988Z,99.90
2023-05-22T21:32:04.565Z,99.90
2023-05-22T21:34:33.001Z,99.90
2023-05-22T21:37:00.565Z,99.90
2023-05-22T21:39:28.139Z,99.90
2023-05-22T21:41:55.757Z,99.90
2023-05-22T21:44:23.362Z,99.90
2023-05-22T21:46:51.009Z,99.90
2023-05-22T21:49:19.340Z,99.90
2023-05-22T21:51:47.690Z,99.90
2023-05-22T21:54:16.057Z,99.90
2023-05-22T21:56:43.696Z,99.90
2023-05-22T21:59:11.356Z,99.90
2023-05-22T22:01:39.695Z,99.90
2023-05-22T22:04:07.335Z,99.90
2023-05-22T22:06:34.877Z,99.90
2023-05-22T22:09:02.455Z,99.90
2023-05-22T22:11:30.849Z,99.90
2023-05-22T22:13:58.545Z,99.90
2023-05-22T22:16:26.208Z,99.90
2023-05-22T22:18:53.818Z,99.90
2023-05-22T22:21:22.167Z,99.90
2023-05-22T22:23:49.759Z,99.90
2023-05-22T22:26:18.217Z,99.90
2023-05-22T22:28:45.811Z,99.90
2023-05-22T22:31:13.379Z,99.90
2023-05-22T22:33:41.050Z,99.90
2023-05-22T22:36:08.631Z,99.90
2023-05-22T22:38:36.205Z,99.90
2023-05-22T22:41:03.911Z,99.90
2023-05-22T22:43:31.493Z,99.90
2023-05-22T22:45:59.105Z,99.90
2023-05-22T22:48:26.723Z,99.90
2023-05-22T22:50:54.325Z,99.90
2023-05-22T22:53:21.898Z,99.90
2023-05-22T22:55:50.282Z,99.90
2023-05-22T22:58:18.679Z,99.90
2023-05-22T23:00:46.247Z,99.90
2023-05-22T23:03:13.905Z,99.90
2023-05-22T23:05:42.550Z,99.90
2023-05-22T23:08:10.628Z,99.90
2023-05-22T23:10:38.232Z,99.90
2023-05-22T23:13:05.840Z,99.90
2023-05-22T23:15:33.440Z,99.90
2023-05-22T23:18:01.828Z,99.90
2023-05-22T23:20:29.396Z,99.90
2023-05-22T23:22:56.994Z,99.90
2023-05-22T23:25:24.653Z,99.90
2023-05-22T23:27:52.227Z,99.90
2023-05-22T23:30:20.600Z,99.90
2023-05-22T23:32:48.238Z,99.90
2023-05-22T23:35:15.809Z,99.90
2023-05-22T23:37:43.391Z,99.90
2023-05-22T23:40:11.061Z,99.90
2023-05-22T23:42:38.626Z,99.90
2023-05-22T23:45:07.092Z,99.90
2023-05-22T23:47:35.474Z,99.90
2023-05-22T23:50:08.272Z,99.90
2023-05-22T23:52:35.852Z,99.90
2023-05-22T23:55:03.470Z,99.90
2023-05-22T23:57:31.820Z,99.90
2023-05-22T23:59:59.401Z,99.90
